createdAt,value
2017-05-14T00:01:03.853Z,931.88
2017-05-14T00:02:16.256Z,931.9
2017-05-14T00:03:29.342Z,931.85
2017-05-14T00:04:42.214Z,931.86
2017-05-14T00:05:55.119Z,931.81
2017-05-14T00:07:08.000Z,931.86
2017-05-14T00:08:20.429Z,931.91
2017-05-14T00:09:33.508Z,931.9
2017-05-14T00:10:46.377Z,931.89
2017-05-14T00:11:58.281Z,931.9
2017-05-14T00:13:11.168Z,931.92
2017-05-14T00:14:24.247Z,931.92
2017-05-14T00:15:37.117Z,931.89
2017-05-14T00:16:49.991Z,931.89
2017-05-14T00:18:02.872Z,931.92
2017-05-14T00:19:14.778Z,931.92
2017-05-14T00:20:27.165Z,931.94
2017-05-14T00:21:40.038Z,931.91
2017-05-14T00:22:52.917Z,931.93
2017-05-14T00:24:05.801Z,931.94
2017-05-14T00:25:18.679Z,931.98
2017-05-14T00:26:31.554Z,931.97
2017-05-14T00:27:44.433Z,931.98
2017-05-14T00:28:57.319Z,931.97
2017-05-14T00:30:10.188Z,932
2017-05-14T00:31:23.053Z,931.99
2017-05-14T00:32:35.930Z,932
2017-05-14T00:33:48.808Z,932
2017-05-14T00:35:01.679Z,932.02
2017-05-14T00:36:14.361Z,932.05
2017-05-14T00:37:26.752Z,932.09
2017-05-14T00:38:39.635Z,932.12
2017-05-14T00:39:52.511Z,932.12
2017-05-14T00:41:05.384Z,932.12
2017-05-14T00:42:18.072Z,932.1
2017-05-14T00:43:30.462Z,932.11
2017-05-14T00:44:42.846Z,932.1
2017-05-14T00:45:55.720Z,932.08
2017-05-14T00:47:08.895Z,932.05
2017-05-14T00:48:21.764Z,932.03
2017-05-14T00:49:34.549Z,932.03
2017-05-14T00:50:47.333Z,931.98
2017-05-14T00:52:00.115Z,931.96
2017-05-14T00:53:12.419Z,931.85
2017-05-14T00:54:24.724Z,931.81
2017-05-14T00:55:37.506Z,931.77
2017-05-14T00:56:49.810Z,931.75
2017-05-14T00:58:02.109Z,931.73
2017-05-14T00:59:14.888Z,931.76
2017-05-14T01:00:27.188Z,931.77
2017-05-14T01:01:39.975Z,931.78
2017-05-14T01:02:52.758Z,931.75
2017-05-14T01:04:05.746Z,931.79
2017-05-14T01:05:18.534Z,931.78
2017-05-14T01:06:31.329Z,931.77
2017-05-14T01:07:44.112Z,931.75
2017-05-14T01:08:56.616Z,931.77
2017-05-14T01:10:09.406Z,931.73
2017-05-14T01:11:21.706Z,931.73
2017-05-14T01:12:34.485Z,931.79
2017-05-14T01:13:47.276Z,931.81
2017-05-14T01:14:59.779Z,931.84
2017-05-14T01:16:12.566Z,931.87
2017-05-14T01:17:24.871Z,931.82
2017-05-14T01:18:37.670Z,931.78
2017-05-14T01:19:50.458Z,931.78
2017-05-14T01:21:02.762Z,931.69
2017-05-14T01:22:15.064Z,931.67
2017-05-14T01:23:27.849Z,931.64
2017-05-14T01:24:40.629Z,931.59
2017-05-14T01:25:53.419Z,931.55
2017-05-14T01:27:05.722Z,931.57
2017-05-14T01:28:18.506Z,931.65
2017-05-14T01:29:31.290Z,931.59
2017-05-14T01:30:44.375Z,931.57
2017-05-14T01:31:56.670Z,931.55
2017-05-14T01:33:09.453Z,931.54
2017-05-14T01:34:22.245Z,931.54
2017-05-14T01:35:35.039Z,931.58
2017-05-14T01:36:48.034Z,931.6
2017-05-14T01:38:00.820Z,931.6
2017-05-14T01:39:13.609Z,931.57
2017-05-14T01:40:26.401Z,931.58
2017-05-14T01:41:39.247Z,931.58
2017-05-14T01:42:52.045Z,931.61
2017-05-14T01:44:04.874Z,931.59
2017-05-14T01:45:17.664Z,931.59
2017-05-14T01:46:29.979Z,931.6
2017-05-14T01:47:42.285Z,931.62
2017-05-14T01:48:55.069Z,931.68
2017-05-14T01:50:07.856Z,931.69
2017-05-14T01:51:20.642Z,931.67
2017-05-14T01:52:33.633Z,931.67
2017-05-14T01:53:46.418Z,931.69
2017-05-14T01:54:59.213Z,931.71
2017-05-14T01:56:12.009Z,931.66
2017-05-14T01:57:23.353Z,931.67
2017-05-14T01:58:36.342Z,931.7
2017-05-14T01:59:49.181Z,931.74
2017-05-14T02:01:01.493Z,931.7
2017-05-14T02:02:13.800Z,931.72
2017-05-14T02:03:26.586Z,931.75
2017-05-14T02:04:38.887Z,931.79
2017-05-14T02:05:51.679Z,931.76
2017-05-14T02:07:04.470Z,931.76
2017-05-14T02:08:17.259Z,931.74
2017-05-14T02:09:29.568Z,931.76
2017-05-14T02:10:42.375Z,931.78
2017-05-14T02:11:55.173Z,931.81
2017-05-14T02:13:07.961Z,931.81
2017-05-14T02:14:20.479Z,931.76
2017-05-14T02:15:33.273Z,931.76
2017-05-14T02:16:46.064Z,931.75
2017-05-14T02:17:58.849Z,931.8
2017-05-14T02:19:11.633Z,931.77
2017-05-14T02:20:23.456Z,931.79
2017-05-14T02:21:35.278Z,931.79
2017-05-14T02:22:48.069Z,931.8
2017-05-14T02:24:00.860Z,931.73
2017-05-14T02:25:13.942Z,931.79
2017-05-14T02:26:26.736Z,931.77
2017-05-14T02:27:39.525Z,931.83
2017-05-14T02:28:52.321Z,931.74
2017-05-14T02:30:05.108Z,931.75
2017-05-14T02:31:17.709Z,931.72
2017-05-14T02:32:30.494Z,931.76
2017-05-14T02:33:43.278Z,931.78
2017-05-14T02:34:56.068Z,931.79
2017-05-14T02:36:08.673Z,931.8
2017-05-14T02:37:20.977Z,931.76
2017-05-14T02:38:33.284Z,931.72
2017-05-14T02:39:46.066Z,931.68
2017-05-14T02:40:58.857Z,931.64
2017-05-14T02:42:11.956Z,931.63
2017-05-14T02:43:24.751Z,931.61
2017-05-14T02:44:37.544Z,931.61
2017-05-14T02:45:50.327Z,931.56
2017-05-14T02:47:03.120Z,931.53
2017-05-14T02:48:14.948Z,931.52
2017-05-14T02:49:27.733Z,931.47
2017-05-14T02:50:40.519Z,931.48
2017-05-14T02:51:52.820Z,931.52
2017-05-14T02:53:05.613Z,931.45
2017-05-14T02:54:17.921Z,931.43
2017-05-14T02:55:30.706Z,931.34
2017-05-14T02:56:43.492Z,931.3
2017-05-14T02:57:56.491Z,931.28
2017-05-14T02:59:08.318Z,931.32
2017-05-14T03:00:20.628Z,931.32
2017-05-14T03:01:33.416Z,931.25
2017-05-14T03:02:46.219Z,931.21
2017-05-14T03:03:59.325Z,931.22
2017-05-14T03:05:11.745Z,931.24
2017-05-14T03:06:24.241Z,931.22
2017-05-14T03:07:36.792Z,931.19
2017-05-14T03:08:50.045Z,931.21
2017-05-14T03:10:03.087Z,931.14
2017-05-14T03:11:14.632Z,931.18
2017-05-14T03:12:27.721Z,931.02
2017-05-14T03:13:40.768Z,930.95
2017-05-14T03:14:54.017Z,930.89
2017-05-14T03:16:06.563Z,930.86
2017-05-14T03:17:19.606Z,930.84
2017-05-14T03:18:32.650Z,930.79
2017-05-14T03:19:45.701Z,930.72
2017-05-14T03:20:58.248Z,930.76
2017-05-14T03:22:10.791Z,930.77
2017-05-14T03:23:22.839Z,930.74
2017-05-14T03:24:35.884Z,930.79
2017-05-14T03:27:30.014Z,930.78
2017-05-14T03:28:42.562Z,930.76
2017-05-14T03:29:55.604Z,930.73
2017-05-14T03:31:08.151Z,930.73
2017-05-14T03:32:21.194Z,930.76
2017-05-14T03:33:34.241Z,930.8
2017-05-14T03:34:47.289Z,930.82
2017-05-14T03:35:59.837Z,930.8
2017-05-14T03:37:12.885Z,930.82
2017-05-14T03:38:25.945Z,930.87
2017-05-14T03:39:38.996Z,930.93
2017-05-14T03:40:51.730Z,930.94
2017-05-14T03:42:04.636Z,930.86
2017-05-14T03:43:17.048Z,930.84
2017-05-14T03:44:29.946Z,930.82
2017-05-14T03:45:42.852Z,930.83
2017-05-14T03:46:55.567Z,930.82
2017-05-14T03:48:08.000Z,930.85
2017-05-14T03:49:20.921Z,930.84
2017-05-14T03:50:33.842Z,930.78
2017-05-14T03:51:46.765Z,930.75
2017-05-14T03:52:59.695Z,930.68
2017-05-14T03:54:12.615Z,930.59
2017-05-14T03:55:25.534Z,930.54
2017-05-14T03:56:38.456Z,930.48
2017-05-14T03:57:51.376Z,930.45
2017-05-14T03:59:04.297Z,930.48
2017-05-14T04:00:16.730Z,930.56
2017-05-14T04:01:29.651Z,930.58
2017-05-14T04:02:42.771Z,930.55
2017-05-14T04:03:55.693Z,930.6
2017-05-14T04:05:08.623Z,930.64
2017-05-14T04:06:21.052Z,930.6
2017-05-14T04:07:33.974Z,930.58
2017-05-14T04:08:46.897Z,930.57
2017-05-14T04:09:59.333Z,930.62
2017-05-14T04:11:11.762Z,930.63
2017-05-14T04:12:24.189Z,930.63
2017-05-14T04:13:37.113Z,930.66
2017-05-14T04:14:50.042Z,930.61
2017-05-14T04:16:02.973Z,930.58
2017-05-14T04:17:15.894Z,930.57
2017-05-14T04:18:27.835Z,930.55
2017-05-14T04:19:40.762Z,930.58
2017-05-14T04:20:53.690Z,930.58
2017-05-14T04:22:06.610Z,930.53
2017-05-14T04:23:19.531Z,930.54
2017-05-14T04:24:32.652Z,930.49
2017-05-14T04:25:45.084Z,930.45
2017-05-14T04:26:57.524Z,930.44
2017-05-14T04:28:09.951Z,930.44
2017-05-14T04:29:22.884Z,930.44
2017-05-14T04:30:36.010Z,930.38
2017-05-14T04:31:48.926Z,930.4
2017-05-14T04:33:01.827Z,930.38
2017-05-14T04:34:14.741Z,930.38
2017-05-14T04:35:27.844Z,930.29
2017-05-14T04:36:40.742Z,930.29
2017-05-14T04:37:53.640Z,930.25
2017-05-14T04:39:06.542Z,930.22
2017-05-14T04:40:19.438Z,930.17
2017-05-14T04:41:32.573Z,930.14
2017-05-14T04:42:45.477Z,930.08
2017-05-14T04:43:58.425Z,930.09
2017-05-14T04:45:10.352Z,930.02
2017-05-14T04:46:23.453Z,930.03
2017-05-14T04:47:35.863Z,929.94
2017-05-14T04:48:48.768Z,929.96
2017-05-14T04:50:01.679Z,929.96
2017-05-14T04:51:14.089Z,929.94
2017-05-14T04:52:27.189Z,929.95
2017-05-14T04:53:40.092Z,929.99
2017-05-14T04:54:52.503Z,930.03
2017-05-14T04:56:05.403Z,930.12
2017-05-14T04:57:17.525Z,930.05
2017-05-14T04:58:30.439Z,930.09
2017-05-14T04:59:43.342Z,930.11
2017-05-14T05:00:56.248Z,930.09
2017-05-14T05:02:08.168Z,930.12
2017-05-14T05:03:20.131Z,930.06
2017-05-14T05:04:33.037Z,930.09
2017-05-14T05:05:45.453Z,930.05
2017-05-14T05:06:58.352Z,930.03
2017-05-14T05:08:11.451Z,929.97
2017-05-14T05:09:23.859Z,930
2017-05-14T05:10:36.271Z,930.03
2017-05-14T05:11:49.179Z,930
2017-05-14T05:13:02.079Z,929.93
2017-05-14T05:14:14.985Z,929.93
2017-05-14T05:15:27.892Z,929.9
2017-05-14T05:16:39.864Z,929.87
2017-05-14T05:17:52.709Z,929.85
2017-05-14T05:19:05.312Z,929.79
2017-05-14T05:20:18.098Z,929.79
2017-05-14T05:21:30.884Z,929.74
2017-05-14T05:22:43.675Z,929.66
2017-05-14T05:23:56.462Z,929.62
2017-05-14T05:25:09.245Z,929.61
2017-05-14T05:26:22.028Z,929.59
2017-05-14T05:27:34.821Z,929.55
2017-05-14T05:28:47.613Z,929.46
2017-05-14T05:30:00.703Z,929.41
2017-05-14T05:31:13.004Z,929.41
2017-05-14T05:32:25.788Z,929.41
2017-05-14T05:33:38.586Z,929.42
2017-05-14T05:34:51.383Z,929.44
2017-05-14T05:36:03.690Z,929.45
2017-05-14T05:37:15.990Z,929.4
2017-05-14T05:38:28.294Z,929.4
2017-05-14T05:39:41.095Z,929.4
2017-05-14T05:40:54.179Z,929.41
2017-05-14T05:42:06.962Z,929.36
2017-05-14T05:43:19.746Z,929.38
2017-05-14T05:44:32.533Z,929.33
2017-05-14T05:45:45.320Z,929.37
2017-05-14T05:47:12.179Z,929.35
2017-05-14T05:48:24.482Z,929.27
2017-05-14T05:49:37.275Z,929.21
2017-05-14T05:50:50.079Z,929.2
2017-05-14T05:52:02.925Z,929.17
2017-05-14T05:53:15.232Z,929.05
2017-05-14T05:54:27.541Z,928.99
2017-05-14T05:55:40.330Z,928.8
2017-05-14T05:56:53.117Z,928.77
2017-05-14T05:58:06.253Z,928.62
2017-05-14T05:59:19.033Z,928.62
2017-05-14T06:00:31.823Z,928.52
2017-05-14T06:01:44.614Z,928.44
2017-05-14T06:02:56.914Z,928.45
2017-05-14T06:04:09.699Z,928.46
2017-05-14T06:05:22.006Z,928.37
2017-05-14T06:06:34.794Z,928.44
2017-05-14T06:07:47.593Z,928.42
2017-05-14T06:08:59.414Z,928.42
2017-05-14T06:10:11.719Z,928.43
2017-05-14T06:11:24.511Z,928.46
2017-05-14T06:12:37.336Z,928.39
2017-05-14T06:13:50.325Z,928.34
2017-05-14T06:15:03.104Z,928.31
2017-05-14T06:16:14.929Z,928.25
2017-05-14T06:17:27.720Z,928.17
2017-05-14T06:18:40.020Z,928.18
2017-05-14T06:19:52.807Z,928.14
2017-05-14T06:21:05.601Z,928.15
2017-05-14T06:22:18.393Z,928.14
2017-05-14T06:23:31.183Z,928.13
2017-05-14T06:24:43.785Z,928.1
2017-05-14T06:25:56.571Z,928.08
2017-05-14T06:27:08.441Z,928.09
2017-05-14T06:28:21.228Z,928.18
2017-05-14T06:29:34.012Z,928.31
2017-05-14T06:30:47.002Z,928.38
2017-05-14T06:31:59.796Z,928.43
2017-05-14T06:33:12.102Z,928.4
2017-05-14T06:34:24.404Z,928.38
2017-05-14T06:35:37.492Z,928.39
2017-05-14T06:36:50.286Z,928.38
2017-05-14T06:38:03.083Z,928.49
2017-05-14T06:39:15.878Z,928.39
2017-05-14T06:40:28.663Z,928.31
2017-05-14T06:41:41.755Z,928.34
2017-05-14T06:42:54.065Z,928.31
2017-05-14T06:44:06.850Z,928.32
2017-05-14T06:45:18.671Z,928.28
2017-05-14T06:46:31.657Z,928.28
2017-05-14T06:47:44.534Z,928.28
2017-05-14T06:48:57.452Z,928.26
2017-05-14T06:50:10.376Z,928.2
2017-05-14T06:51:23.295Z,928.15
2017-05-14T06:52:36.518Z,928.08
2017-05-14T06:53:49.435Z,928.09
2017-05-14T06:55:02.369Z,928.2
2017-05-14T06:56:15.291Z,928.1
2017-05-14T06:57:27.727Z,928.17
2017-05-14T06:58:40.156Z,928.2
2017-05-14T06:59:53.082Z,928.2
2017-05-14T07:01:05.515Z,928.18
2017-05-14T07:02:18.434Z,928.2
2017-05-14T07:03:31.554Z,928.18
2017-05-14T07:04:44.475Z,928.02
2017-05-14T07:05:57.396Z,928.15
2017-05-14T07:07:10.317Z,928.13
2017-05-14T07:08:23.054Z,928.06
2017-05-14T07:09:35.987Z,928.1
2017-05-14T07:10:48.908Z,928.04
2017-05-14T07:12:01.827Z,928.03
2017-05-14T07:13:14.253Z,927.95
2017-05-14T07:14:27.479Z,927.97
2017-05-14T07:15:40.399Z,928.01
2017-05-14T07:16:52.829Z,928.03
2017-05-14T07:18:05.748Z,928.08
2017-05-14T07:19:18.372Z,928.04
2017-05-14T07:20:31.298Z,928.06
2017-05-14T07:21:43.724Z,928.05
2017-05-14T07:22:56.644Z,928.04
2017-05-14T07:24:09.073Z,928.05
2017-05-14T07:25:21.989Z,928
2017-05-14T07:26:34.916Z,927.93
2017-05-14T07:27:47.342Z,927.92
2017-05-14T07:29:00.257Z,927.96
2017-05-14T07:30:12.986Z,927.94
2017-05-14T07:31:25.908Z,927.93
2017-05-14T07:32:38.753Z,927.89
2017-05-14T07:33:51.540Z,927.97
2017-05-14T07:35:04.323Z,927.9
2017-05-14T07:36:16.925Z,927.85
2017-05-14T07:37:29.714Z,927.84
2017-05-14T07:38:42.510Z,927.78
2017-05-14T07:39:55.301Z,927.78
2017-05-14T07:41:07.903Z,927.76
2017-05-14T07:42:19.720Z,927.73
2017-05-14T07:43:32.563Z,927.74
2017-05-14T07:44:45.395Z,927.68
2017-05-14T07:45:58.194Z,927.62
2017-05-14T07:47:10.989Z,927.6
2017-05-14T07:48:23.775Z,927.66
2017-05-14T07:49:36.563Z,927.6
2017-05-14T07:50:49.354Z,927.68
2017-05-14T07:52:02.439Z,927.67
2017-05-14T07:53:14.743Z,927.58
2017-05-14T07:54:27.054Z,927.65
2017-05-14T07:55:39.856Z,927.68
2017-05-14T07:56:52.639Z,927.82
2017-05-14T07:58:05.421Z,927.76
2017-05-14T07:59:18.225Z,927.77
2017-05-14T08:00:31.010Z,927.83
2017-05-14T08:01:43.790Z,927.89
2017-05-14T08:02:56.575Z,927.9
2017-05-14T08:04:09.359Z,927.91
2017-05-14T08:05:22.157Z,927.92
2017-05-14T08:06:34.945Z,927.89
2017-05-14T08:07:47.249Z,927.96
2017-05-14T08:09:00.051Z,927.89
2017-05-14T08:10:12.838Z,927.9
2017-05-14T08:11:25.626Z,927.98
2017-05-14T08:12:37.928Z,927.97
2017-05-14T08:15:17.133Z,927.95
2017-05-14T08:16:29.445Z,927.95
2017-05-14T08:17:41.749Z,927.98
2017-05-14T08:18:54.049Z,927.99
2017-05-14T08:20:06.831Z,927.98
2017-05-14T08:21:19.625Z,927.98
2017-05-14T08:22:32.411Z,928.02
2017-05-14T08:23:44.724Z,927.88
2017-05-14T08:24:57.516Z,927.92
2017-05-14T08:26:09.821Z,927.92
2017-05-14T08:27:22.615Z,927.91
2017-05-14T08:28:35.403Z,927.95
2017-05-14T08:29:48.191Z,927.93
2017-05-14T08:31:00.979Z,927.93
2017-05-14T08:32:13.766Z,927.97
2017-05-14T08:33:26.596Z,927.9
2017-05-14T08:34:38.903Z,927.79
2017-05-14T08:35:51.895Z,928.04
2017-05-14T08:37:04.202Z,928.05
2017-05-14T08:38:16.031Z,928.06
2017-05-14T08:39:28.820Z,928.18
2017-05-14T08:40:40.647Z,928.14
2017-05-14T08:41:52.955Z,928.13
2017-05-14T08:43:05.746Z,928.06
2017-05-14T08:44:18.059Z,928.07
2017-05-14T08:45:30.844Z,928.04
2017-05-14T08:46:43.833Z,928.13
2017-05-14T08:47:56.139Z,928.11
2017-05-14T08:49:08.926Z,928.14
2017-05-14T08:50:21.707Z,928.19
2017-05-14T08:51:34.493Z,928.16
2017-05-14T08:52:46.801Z,928.2
2017-05-14T08:53:59.637Z,928.17
2017-05-14T08:55:11.460Z,928.12
2017-05-14T08:56:24.247Z,928.14
2017-05-14T08:57:37.236Z,928.13
2017-05-14T08:58:49.544Z,928.13
2017-05-14T09:00:02.328Z,928.05
2017-05-14T09:01:15.118Z,928.14
2017-05-14T09:02:27.450Z,928.16
2017-05-14T09:03:40.233Z,928.22
2017-05-14T09:04:53.016Z,928.29
2017-05-14T09:06:05.316Z,928.27
2017-05-14T09:07:17.139Z,928.39
2017-05-14T09:08:29.977Z,928.49
2017-05-14T09:09:42.279Z,928.44
2017-05-14T09:10:55.072Z,928.33
2017-05-14T09:12:07.862Z,928.28
2017-05-14T09:13:19.987Z,928.24
2017-05-14T09:14:32.779Z,928.13
2017-05-14T09:15:44.599Z,928.16
2017-05-14T09:16:56.909Z,928.19
2017-05-14T09:18:09.219Z,928.26
2017-05-14T09:19:22.002Z,928.3
2017-05-14T09:20:34.785Z,928.36
2017-05-14T09:21:46.610Z,928.36
2017-05-14T09:22:59.408Z,928.34
2017-05-14T09:24:12.252Z,928.39
2017-05-14T09:25:24.554Z,928.41
2017-05-14T09:26:37.347Z,928.48
2017-05-14T09:27:50.193Z,928.53
2017-05-14T09:29:02.981Z,928.62
2017-05-14T09:30:15.770Z,928.61
2017-05-14T09:31:28.551Z,928.68
2017-05-14T09:32:40.859Z,928.8
2017-05-14T09:33:53.650Z,928.81
2017-05-14T09:35:06.432Z,928.88
2017-05-14T09:36:19.229Z,928.93
2017-05-14T09:37:31.537Z,928.89
2017-05-14T09:38:44.376Z,928.94
2017-05-14T09:39:56.690Z,928.94
2017-05-14T09:41:09.294Z,928.92
2017-05-14T09:42:22.087Z,928.97
2017-05-14T09:43:34.403Z,928.97
2017-05-14T09:44:46.713Z,928.85
2017-05-14T09:45:59.499Z,928.86
2017-05-14T09:47:11.818Z,928.77
2017-05-14T09:48:23.742Z,928.83
2017-05-14T09:49:36.640Z,928.77
2017-05-14T09:50:49.538Z,928.76
2017-05-14T09:52:01.951Z,928.79
2017-05-14T09:53:14.905Z,928.83
2017-05-14T09:54:27.810Z,928.86
2017-05-14T09:55:40.713Z,928.86
2017-05-14T09:56:53.426Z,928.9
2017-05-14T09:58:05.916Z,928.95
2017-05-14T09:59:18.408Z,928.96
2017-05-14T10:00:31.391Z,929.01
2017-05-14T10:01:43.880Z,928.99
2017-05-14T10:02:56.867Z,929.03
2017-05-14T10:04:09.355Z,929.09
2017-05-14T10:05:21.846Z,929.16
2017-05-14T10:06:34.827Z,929.22
2017-05-14T10:07:48.114Z,929.05
2017-05-14T10:09:01.159Z,929.11
2017-05-14T10:10:14.145Z,929.16
2017-05-14T10:11:27.136Z,928.99
2017-05-14T10:12:40.124Z,929.08
2017-05-14T10:13:52.919Z,929.12
2017-05-14T10:15:05.909Z,929.15
2017-05-14T10:16:17.407Z,929.15
2017-05-14T10:17:30.402Z,929.13
2017-05-14T10:18:43.687Z,929.3
2017-05-14T10:19:56.670Z,929.29
2017-05-14T10:21:09.158Z,929.31
2017-05-14T10:22:22.143Z,929.37
2017-05-14T10:23:34.633Z,929.38
2017-05-14T10:24:47.817Z,929.39
2017-05-14T10:26:00.308Z,929.49
2017-05-14T10:27:12.304Z,929.47
2017-05-14T10:28:24.297Z,929.52
2017-05-14T10:29:37.281Z,929.63
2017-05-14T10:30:50.268Z,929.68
2017-05-14T10:32:02.752Z,929.72
2017-05-14T10:33:15.169Z,929.68
2017-05-14T10:34:27.572Z,929.63
2017-05-14T10:35:39.982Z,929.65
2017-05-14T10:36:52.885Z,929.61
2017-05-14T10:38:05.786Z,929.54
2017-05-14T10:39:18.202Z,929.71
2017-05-14T10:40:31.401Z,929.83
2017-05-14T10:41:43.844Z,929.86
2017-05-14T10:42:56.743Z,929.79
2017-05-14T10:44:09.154Z,929.84
2017-05-14T10:45:21.570Z,929.78
2017-05-14T10:46:34.477Z,929.79
2017-05-14T10:47:47.384Z,929.67
2017-05-14T10:48:59.800Z,929.71
2017-05-14T10:50:11.724Z,929.7
2017-05-14T10:51:24.828Z,929.72
2017-05-14T10:52:37.729Z,929.81
2017-05-14T10:53:50.633Z,929.87
2017-05-14T10:55:03.058Z,929.86
2017-05-14T10:56:14.496Z,929.87
2017-05-14T10:57:27.404Z,929.85
2017-05-14T10:58:40.306Z,929.81
2017-05-14T10:59:53.202Z,929.79
2017-05-14T11:01:06.106Z,929.77
2017-05-14T11:02:18.825Z,929.8
2017-05-14T11:03:31.729Z,929.81
2017-05-14T11:04:44.629Z,929.9
2017-05-14T11:05:57.532Z,929.81
2017-05-14T11:07:09.942Z,929.77
2017-05-14T11:08:22.551Z,929.75
2017-05-14T11:09:34.518Z,929.78
2017-05-14T11:10:46.445Z,929.78
2017-05-14T11:11:58.368Z,929.87
2017-05-14T11:13:10.783Z,929.86
2017-05-14T11:14:23.191Z,929.79
2017-05-14T11:15:36.090Z,929.88
2017-05-14T11:16:48.012Z,929.91
2017-05-14T11:18:00.928Z,929.9
2017-05-14T11:19:13.845Z,929.86
2017-05-14T11:20:25.785Z,929.95
2017-05-14T11:21:38.741Z,929.99
2017-05-14T11:22:51.180Z,929.96
2017-05-14T11:24:04.405Z,929.96
2017-05-14T11:25:16.835Z,929.95
2017-05-14T11:26:29.751Z,929.98
2017-05-14T11:27:42.672Z,930.05
2017-05-14T11:28:55.100Z,930.1
2017-05-14T11:30:08.219Z,930.15
2017-05-14T11:31:20.652Z,930.08
2017-05-14T11:32:33.578Z,929.93
2017-05-14T11:33:46.006Z,929.89
2017-05-14T11:34:58.631Z,929.99
2017-05-14T11:36:11.062Z,930.1
2017-05-14T11:37:23.489Z,930.03
2017-05-14T11:38:36.410Z,929.83
2017-05-14T11:39:49.335Z,929.85
2017-05-14T11:41:01.793Z,930.03
2017-05-14T11:42:14.221Z,929.9
2017-05-14T11:43:26.697Z,929.99
2017-05-14T11:44:39.124Z,930
2017-05-14T11:45:51.259Z,930.01
2017-05-14T11:47:03.696Z,930.02
2017-05-14T11:48:16.619Z,930.03
2017-05-14T11:49:29.539Z,929.97
2017-05-14T11:50:41.968Z,930
2017-05-14T11:51:54.593Z,930.04
2017-05-14T11:53:07.516Z,929.9
2017-05-14T11:54:20.440Z,930.08
2017-05-14T11:55:33.368Z,930.12
2017-05-14T11:56:46.492Z,930.14
2017-05-14T11:57:58.922Z,930.01
2017-05-14T11:59:11.844Z,930.28
2017-05-14T12:00:24.277Z,930.22
2017-05-14T12:01:37.179Z,930.13
2017-05-14T12:02:49.963Z,930.24
2017-05-14T12:04:02.748Z,930.25
2017-05-14T12:05:15.048Z,930.19
2017-05-14T12:06:27.831Z,930.26
2017-05-14T12:07:40.914Z,930.3
2017-05-14T12:08:53.696Z,930.12
2017-05-14T12:10:06.477Z,930.2
2017-05-14T12:11:19.263Z,930.3
2017-05-14T12:12:31.563Z,930.26
2017-05-14T12:13:43.864Z,930.21
2017-05-14T12:14:56.214Z,930.25
2017-05-14T12:16:09.076Z,930.27
2017-05-14T12:17:21.456Z,930.34
2017-05-14T12:18:34.524Z,930.16
2017-05-14T12:19:47.389Z,930.31
2017-05-14T12:21:00.249Z,930.33
2017-05-14T12:22:13.114Z,930.38
2017-05-14T12:23:25.981Z,930.38
2017-05-14T12:24:39.043Z,930.26
2017-05-14T12:25:51.421Z,930.38
2017-05-14T12:27:04.296Z,930.44
2017-05-14T12:28:17.160Z,930.41
2017-05-14T12:29:30.042Z,930.64
2017-05-14T12:30:42.913Z,930.58
2017-05-14T12:31:55.777Z,930.68
2017-05-14T12:33:08.649Z,930.64
2017-05-14T12:34:21.517Z,930.67
2017-05-14T12:35:34.383Z,930.7
2017-05-14T12:36:47.249Z,930.71
2017-05-14T12:37:59.136Z,930.69
2017-05-14T12:39:11.512Z,930.78
2017-05-14T12:40:24.372Z,930.79
2017-05-14T12:41:37.243Z,930.7
2017-05-14T12:42:50.107Z,930.73
2017-05-14T12:44:01.999Z,930.75
2017-05-14T12:45:14.863Z,930.76
2017-05-14T12:46:27.944Z,930.8
2017-05-14T12:47:40.432Z,930.82
2017-05-14T12:48:53.412Z,930.82
2017-05-14T12:50:05.901Z,930.84
2017-05-14T12:51:18.885Z,930.87
2017-05-14T12:52:31.874Z,930.92
2017-05-14T12:53:44.903Z,930.93
2017-05-14T12:54:57.394Z,931.02
2017-05-14T12:56:10.379Z,930.98
2017-05-14T12:57:23.764Z,931.01
2017-05-14T12:58:36.749Z,930.93
2017-05-14T12:59:49.732Z,930.97
2017-05-14T13:01:02.720Z,930.98
2017-05-14T13:02:14.216Z,930.91
2017-05-14T13:03:27.201Z,930.92
2017-05-14T13:04:40.184Z,930.94
2017-05-14T13:05:53.166Z,930.88
2017-05-14T13:07:05.654Z,930.92
2017-05-14T13:08:18.640Z,930.9
2017-05-14T13:09:31.621Z,930.79
2017-05-14T13:10:44.606Z,930.83
2017-05-14T13:11:57.096Z,930.8
2017-05-14T13:13:08.594Z,930.83
2017-05-14T13:14:20.633Z,930.85
2017-05-14T13:15:33.625Z,930.77
2017-05-14T13:16:46.609Z,930.8
2017-05-14T13:17:59.105Z,930.74
2017-05-14T13:19:11.797Z,930.67
2017-05-14T13:20:24.779Z,930.59
2017-05-14T13:21:37.761Z,930.53
2017-05-14T13:22:50.743Z,930.51
2017-05-14T13:24:03.835Z,930.38
2017-05-14T13:25:16.733Z,930.36
2017-05-14T13:26:29.631Z,930.36
2017-05-14T13:27:42.533Z,930.32
2017-05-14T13:28:55.435Z,930.17
2017-05-14T13:30:22.385Z,930.25
2017-05-14T13:31:35.287Z,930.28
2017-05-14T13:32:48.209Z,930.22
2017-05-14T13:34:01.123Z,930.22
2017-05-14T13:35:13.554Z,930.21
2017-05-14T13:36:25.493Z,930.31
2017-05-14T13:37:38.421Z,930.3
2017-05-14T13:38:51.343Z,930.22
2017-05-14T13:40:04.265Z,930.25
2017-05-14T13:41:17.192Z,930.24
2017-05-14T13:42:30.121Z,930.27
2017-05-14T13:43:43.049Z,930.28
2017-05-14T13:44:55.968Z,930.28
2017-05-14T13:46:08.894Z,930.25
2017-05-14T13:47:21.817Z,930.22
2017-05-14T13:48:34.733Z,930.16
2017-05-14T13:49:47.650Z,930.18
2017-05-14T13:51:00.574Z,930.2
2017-05-14T13:52:13.495Z,930.23
2017-05-14T13:53:26.413Z,930.21
2017-05-14T13:54:38.352Z,930.14
2017-05-14T13:55:51.277Z,930.15
2017-05-14T13:57:03.707Z,930.13
2017-05-14T13:58:16.136Z,930.19
2017-05-14T13:59:28.567Z,930.19
2017-05-14T14:00:40.993Z,930.18
2017-05-14T14:01:54.217Z,930.32
2017-05-14T14:03:07.142Z,930.25
2017-05-14T14:04:20.065Z,930.31
2017-05-14T14:05:32.995Z,930.37
2017-05-14T14:06:45.917Z,930.3
2017-05-14T14:07:59.140Z,930.34
2017-05-14T14:09:11.568Z,930.28
2017-05-14T14:10:23.996Z,930.31
2017-05-14T14:11:36.916Z,930.34
2017-05-14T14:12:50.134Z,930.21
2017-05-14T14:14:02.070Z,930.26
2017-05-14T14:15:14.990Z,930.22
2017-05-14T14:16:27.894Z,930.13
2017-05-14T14:17:40.678Z,930.13
2017-05-14T14:18:53.663Z,930.14
2017-05-14T14:20:05.972Z,930.23
2017-05-14T14:21:18.272Z,930.11
2017-05-14T14:22:31.059Z,930.03
2017-05-14T14:23:44.046Z,930.03
2017-05-14T14:24:56.829Z,930.1
2017-05-14T14:26:09.625Z,930.08
2017-05-14T14:27:22.412Z,930.08
2017-05-14T14:28:35.200Z,930.06
2017-05-14T14:29:48.187Z,930.11
2017-05-14T14:31:00.006Z,930.07
2017-05-14T14:32:12.799Z,930.09
2017-05-14T14:33:25.595Z,930.14
2017-05-14T14:34:38.378Z,930.15
2017-05-14T14:35:51.164Z,930.03
2017-05-14T14:37:03.474Z,930.07
2017-05-14T14:38:16.257Z,930.02
2017-05-14T14:39:29.085Z,930.07
2017-05-14T14:40:41.593Z,930
2017-05-14T14:41:54.377Z,930.04
2017-05-14T14:43:06.681Z,929.92
2017-05-14T14:44:18.981Z,930
2017-05-14T14:45:32.070Z,929.94
2017-05-14T14:46:44.862Z,929.86
2017-05-14T14:47:57.162Z,929.82
2017-05-14T14:49:09.473Z,929.86
2017-05-14T14:50:22.262Z,929.82
2017-05-14T14:51:35.051Z,929.77
2017-05-14T14:52:47.850Z,929.76
2017-05-14T14:54:00.638Z,929.8
2017-05-14T14:55:13.426Z,929.84
2017-05-14T14:56:26.061Z,929.78
2017-05-14T14:57:38.853Z,929.77
2017-05-14T14:58:51.640Z,929.83
2017-05-14T15:00:04.423Z,929.87
2017-05-14T15:01:17.208Z,929.87
2017-05-14T15:02:30.367Z,929.92
2017-05-14T15:03:43.289Z,929.88
2017-05-14T15:04:55.227Z,929.94
2017-05-14T15:06:08.149Z,929.91
2017-05-14T15:07:20.625Z,929.84
2017-05-14T15:08:33.056Z,929.92
2017-05-14T15:09:45.977Z,929.79
2017-05-14T15:10:58.408Z,929.87
2017-05-14T15:12:11.339Z,929.81
2017-05-14T15:13:24.265Z,929.82
2017-05-14T15:14:37.209Z,929.77